sensor_id;sensor_type;location;lat;lon;timestamp;pressure;altitude;pressure_sealevel;temperature;humidity
29385;BME280;16367;48.736;9.218;2022-07-06T00:01:17;-23789.19;;;19.72;56.85
29385;BME280;16367;48.736;9.218;2022-07-06T00:03:21;-23787.28;;;19.66;57.47
29385;BME280;16367;48.736;9.218;2022-07-06T00:05:24;-23784.00;;;19.56;57.70
29385;BME280;16367;48.736;9.218;2022-07-06T00:07:28;-23792.47;;;19.83;57.15
29385;BME280;16367;48.736;9.218;2022-07-06T00:09:31;-23783.22;;;19.53;57.85
29385;BME280;16367;48.736;9.218;2022-07-06T00:11:34;-23784.63;;;19.58;58.15
29385;BME280;16367;48.736;9.218;2022-07-06T00:13:38;-23790.44;;;19.76;57.79
29385;BME280;16367;48.736;9.218;2022-07-06T00:15:41;-23780.69;;;19.45;57.88
29385;BME280;16367;48.736;9.218;2022-07-06T00:17:44;-23781.97;;;19.49;58.33
29385;BME280;16367;48.736;9.218;2022-07-06T00:19:48;-23778.50;;;19.38;58.53
29385;BME280;16367;48.736;9.218;2022-07-06T00:21:51;-23781.66;;;19.48;58.48
29385;BME280;16367;48.736;9.218;2022-07-06T00:23:54;-23783.53;;;19.54;58.44
29385;BME280;16367;48.736;9.218;2022-07-06T00:25:57;-23786.34;;;19.63;58.04
29385;BME280;16367;48.736;9.218;2022-07-06T00:27:59;-23779.44;;;19.41;59.05
29385;BME280;16367;48.736;9.218;2022-07-06T00:30:02;-23780.38;;;19.44;58.97
29385;BME280;16367;48.736;9.218;2022-07-06T00:32:06;-23783.22;;;19.53;58.69
29385;BME280;16367;48.736;9.218;2022-07-06T00:34:09;-23782.59;;;19.51;58.78
29385;BME280;16367;48.736;9.218;2022-07-06T00:36:13;-23781.66;;;19.48;58.50
29385;BME280;16367;48.736;9.218;2022-07-06T00:38:16;-23783.53;;;19.54;58.71
29385;BME280;16367;48.736;9.218;2022-07-06T00:40:20;-23776.78;;;19.32;60.10
29385;BME280;16367;48.736;9.218;2022-07-06T00:42:23;-23778.34;;;19.38;59.42
29385;BME280;16367;48.736;9.218;2022-07-06T00:44:26;-23778.34;;;19.38;59.98
29385;BME280;16367;48.736;9.218;2022-07-06T00:46:31;-23777.25;;;19.34;59.40
29385;BME280;16367;48.736;9.218;2022-07-06T00:48:34;-23779.44;;;19.41;59.29
29385;BME280;16367;48.736;9.218;2022-07-06T00:50:37;-23780.69;;;19.45;59.57
29385;BME280;16367;48.736;9.218;2022-07-06T00:52:43;-23774.56;;;19.25;59.62
29385;BME280;16367;48.736;9.218;2022-07-06T00:54:46;-23773.00;;;19.20;60.13
29385;BME280;16367;48.736;9.218;2022-07-06T00:56:49;-23775.50;;;19.28;59.35
29385;BME280;16367;48.736;9.218;2022-07-06T00:58:52;-23774.72;;;19.26;59.36
29385;BME280;16367;48.736;9.218;2022-07-06T01:00:55;-23771.91;;;19.17;59.93
29385;BME280;16367;48.736;9.218;2022-07-06T01:02:58;-23767.97;;;19.04;60.42
29385;BME280;16367;48.736;9.218;2022-07-06T01:05:02;-23768.75;;;19.07;60.58
29385;BME280;16367;48.736;9.218;2022-07-06T01:07:05;-23767.81;;;19.04;61.26
29385;BME280;16367;48.736;9.218;2022-07-06T01:09:10;-23766.56;;;19.00;60.82
29385;BME280;16367;48.736;9.218;2022-07-06T01:11:13;-23766.56;;;19.00;61.01
29385;BME280;16367;48.736;9.218;2022-07-06T01:13:15;-23766.72;;;19.00;60.52
29385;BME280;16367;48.736;9.218;2022-07-06T01:15:20;-23765.94;;;18.98;61.05
29385;BME280;16367;48.736;9.218;2022-07-06T01:17:23;-23767.50;;;19.03;60.76
29385;BME280;16367;48.736;9.218;2022-07-06T01:19:26;-23770.34;;;19.12;60.40
29385;BME280;16367;48.736;9.218;2022-07-06T01:21:30;-23767.81;;;19.04;60.79
29385;BME280;16367;48.736;9.218;2022-07-06T01:23:38;-23766.56;;;19.00;60.46
29385;BME280;16367;48.736;9.218;2022-07-06T01:25:41;-23766.56;;;19.00;60.33
29385;BME280;16367;48.736;9.218;2022-07-06T01:27:45;-23759.81;;;18.78;60.61
29385;BME280;16367;48.736;9.218;2022-07-06T01:29:47;-23764.22;;;18.92;60.50
29385;BME280;16367;48.736;9.218;2022-07-06T01:31:50;-23763.41;;;18.90;60.35
29385;BME280;16367;48.736;9.218;2022-07-06T01:33:55;-23762.47;;;18.87;60.05
29385;BME280;16367;48.736;9.218;2022-07-06T01:35:58;-23755.25;;;18.64;61.85
29385;BME280;16367;48.736;9.218;2022-07-06T01:38:02;-23756.66;;;18.68;61.07
29385;BME280;16367;48.736;9.218;2022-07-06T01:40:06;-23757.13;;;18.70;61.39
29385;BME280;16367;48.736;9.218;2022-07-06T01:42:09;-23747.06;;;18.37;62.40
29385;BME280;16367;48.736;9.218;2022-07-06T01:44:12;-23747.69;;;18.39;62.25
29385;BME280;16367;48.736;9.218;2022-07-06T01:46:15;-23755.56;;;18.65;61.73
29385;BME280;16367;48.736;9.218;2022-07-06T01:48:19;-23754.78;;;18.62;61.26
29385;BME280;16367;48.736;9.218;2022-07-06T01:50:22;-23746.59;;;18.36;62.12
29385;BME280;16367;48.736;9.218;2022-07-06T01:52:25;-23752.56;;;18.55;61.92
29385;BME280;16367;48.736;9.218;2022-07-06T01:54:29;-23753.38;;;18.57;61.87
29385;BME280;16367;48.736;9.218;2022-07-06T01:56:32;-23746.28;;;18.35;62.44
29385;BME280;16367;48.736;9.218;2022-07-06T01:58:35;-23747.53;;;18.39;62.60
29385;BME280;16367;48.736;9.218;2022-07-06T02:00:37;-23747.69;;;18.39;62.82
29385;BME280;16367;48.736;9.218;2022-07-06T02:02:40;-23745.19;;;18.31;62.79
29385;BME280;16367;48.736;9.218;2022-07-06T02:04:43;-23741.56;;;18.20;63.26
29385;BME280;16367;48.736;9.218;2022-07-06T02:06:45;-23738.72;;;18.11;63.54
29385;BME280;16367;48.736;9.218;2022-07-06T02:08:48;-23732.59;;;17.91;63.73
29385;BME280;16367;48.736;9.218;2022-07-06T02:10:54;-23736.22;;;18.03;63.90
29385;BME280;16367;48.736;9.218;2022-07-06T02:12:57;-23737.31;;;18.06;63.53
29385;BME280;16367;48.736;9.218;2022-07-06T02:15:00;-23731.03;;;17.86;64.20
29385;BME280;16367;48.736;9.218;2022-07-06T02:17:03;-23732.13;;;17.90;64.35
29385;BME280;16367;48.736;9.218;2022-07-06T02:19:06;-23731.97;;;17.89;63.70
29385;BME280;16367;48.736;9.218;2022-07-06T02:21:09;-23735.28;;;18.00;63.64
29385;BME280;16367;48.736;9.218;2022-07-06T02:23:12;-23731.66;;;17.88;64.26
29385;BME280;16367;48.736;9.218;2022-07-06T02:25:15;-23728.19;;;17.77;64.73
29385;BME280;16367;48.736;9.218;2022-07-06T02:27:19;-23729.94;;;17.82;65.03
29385;BME280;16367;48.736;9.218;2022-07-06T02:29:22;-23733.22;;;17.93;63.98
29385;BME280;16367;48.736;9.218;2022-07-06T02:31:24;-23727.88;;;17.76;64.62
29385;BME280;16367;48.736;9.218;2022-07-06T02:33:27;-23724.72;;;17.66;64.88
29385;BME280;16367;48.736;9.218;2022-07-06T02:35:30;-23728.34;;;17.77;64.59
29385;BME280;16367;48.736;9.218;2022-07-06T02:37:33;-23725.06;;;17.67;65.57
29385;BME280;16367;48.736;9.218;2022-07-06T02:39:36;-23727.88;;;17.76;64.56
29385;BME280;16367;48.736;9.218;2022-07-06T02:41:38;-23728.03;;;17.76;64.32
29385;BME280;16367;48.736;9.218;2022-07-06T02:43:43;-23730.56;;;17.84;64.86
29385;BME280;16367;48.736;9.218;2022-07-06T02:45:45;-23728.34;;;17.77;64.64
29385;BME280;16367;48.736;9.218;2022-07-06T02:47:48;-23723.78;;;17.63;65.55
29385;BME280;16367;48.736;9.218;2022-07-06T02:49:53;-23726.78;;;17.72;65.12
29385;BME280;16367;48.736;9.218;2022-07-06T02:51:55;-23722.84;;;17.60;65.46
29385;BME280;16367;48.736;9.218;2022-07-06T02:53:58;-23726.94;;;17.73;65.50
29385;BME280;16367;48.736;9.218;2022-07-06T02:56:01;-23722.06;;;17.57;65.70
29385;BME280;16367;48.736;9.218;2022-07-06T02:58:04;-23728.19;;;17.77;66.02
29385;BME280;16367;48.736;9.218;2022-07-06T03:00:09;-23720.50;;;17.52;66.72
29385;BME280;16367;48.736;9.218;2022-07-06T03:02:12;-23712.63;;;17.27;67.33
29385;BME280;16367;48.736;9.218;2022-07-06T03:04:15;-23714.03;;;17.32;67.86
29385;BME280;16367;48.736;9.218;2022-07-06T03:06:18;-23714.50;;;17.33;68.04
29385;BME280;16367;48.736;9.218;2022-07-06T03:08:23;-23718.28;;;17.45;67.74
29385;BME280;16367;48.736;9.218;2022-07-06T03:10:27;-23713.09;;;17.29;68.94
29385;BME280;16367;48.736;9.218;2022-07-06T03:12:30;-23708.69;;;17.14;69.19
29385;BME280;16367;48.736;9.218;2022-07-06T03:14:32;-23714.03;;;17.32;68.73
29385;BME280;16367;48.736;9.218;2022-07-06T03:16:36;-23714.66;;;17.34;68.19
29385;BME280;16367;48.736;9.218;2022-07-06T03:18:39;-23715.75;;;17.37;68.35
29385;BME280;16367;48.736;9.218;2022-07-06T03:20:42;-23699.25;;;16.84;70.44
29385;BME280;16367;48.736;9.218;2022-07-06T03:22:45;-23704.59;;;17.01;70.84
29385;BME280;16367;48.736;9.218;2022-07-06T03:24:48;-23710.88;;;17.22;69.42
29385;BME280;16367;48.736;9.218;2022-07-06T03:26:51;-23707.41;;;17.10;69.78
29385;BME280;16367;48.736;9.218;2022-07-06T03:28:54;-23711.97;;;17.25;68.97
29385;BME280;16367;48.736;9.218;2022-07-06T03:30:56;-23714.03;;;17.32;68.73
29385;BME280;16367;48.736;9.218;2022-07-06T03:33:01;-23714.03;;;17.32;68.93
29385;BME280;16367;48.736;9.218;2022-07-06T03:35:04;-23715.28;;;17.36;68.59
29385;BME280;16367;48.736;9.218;2022-07-06T03:37:08;-23713.41;;;17.30;69.00
29385;BME280;16367;48.736;9.218;2022-07-06T03:39:10;-23714.50;;;17.33;68.69
29385;BME280;16367;48.736;9.218;2022-07-06T03:41:13;-23715.91;;;17.38;68.94
29385;BME280;16367;48.736;9.218;2022-07-06T03:43:16;-23714.81;;;17.34;68.83
29385;BME280;16367;48.736;9.218;2022-07-06T03:45:19;-23714.34;;;17.33;68.80
29385;BME280;16367;48.736;9.218;2022-07-06T03:47:22;-23715.75;;;17.37;69.24
29385;BME280;16367;48.736;9.218;2022-07-06T03:49:26;-23716.22;;;17.39;68.90
29385;BME280;16367;48.736;9.218;2022-07-06T03:51:29;-23714.66;;;17.34;68.85
29385;BME280;16367;48.736;9.218;2022-07-06T03:53:32;-23709.47;;;17.17;70.53
29385;BME280;16367;48.736;9.218;2022-07-06T03:55:35;-23714.50;;;17.33;68.91
29385;BME280;16367;48.736;9.218;2022-07-06T03:57:38;-23714.34;;;17.33;69.24
29385;BME280;16367;48.736;9.218;2022-07-06T03:59:42;-23717.19;;;17.42;68.71
29385;BME280;16367;48.736;9.218;2022-07-06T04:01:44;-23712.16;;;17.26;69.67
29385;BME280;16367;48.736;9.218;2022-07-06T04:03:47;-23712.47;;;17.27;69.24
29385;BME280;16367;48.736;9.218;2022-07-06T04:05:52;-23713.09;;;17.29;69.29
29385;BME280;16367;48.736;9.218;2022-07-06T04:07:54;-23711.81;;;17.25;70.10
29385;BME280;16367;48.736;9.218;2022-07-06T04:09:57;-23714.50;;;17.33;70.04
29385;BME280;16367;48.736;9.218;2022-07-06T04:12:00;-23713.41;;;17.30;70.15
29385;BME280;16367;48.736;9.218;2022-07-06T04:14:03;-23710.25;;;17.20;70.56
29385;BME280;16367;48.736;9.218;2022-07-06T04:16:06;-23716.88;;;17.41;69.41
29385;BME280;16367;48.736;9.218;2022-07-06T04:18:09;-23722.38;;;17.58;68.33
29385;BME280;16367;48.736;9.218;2022-07-06T04:20:12;-23750.06;;;18.47;65.81
29385;BME280;16367;48.736;9.218;2022-07-06T04:22:16;-23742.66;;;18.23;65.62
29385;BME280;16367;48.736;9.218;2022-07-06T04:24:18;-23769.06;;;19.08;63.61
29385;BME280;16367;48.736;9.218;2022-07-06T04:26:21;-23769.06;;;19.08;63.27
29385;BME280;16367;48.736;9.218;2022-07-06T04:28:24;-23779.75;;;19.42;61.97
29385;BME280;16367;48.736;9.218;2022-07-06T04:30:27;-23772.84;;;19.20;62.87
29385;BME280;16367;48.736;9.218;2022-07-06T04:32:30;-23766.25;;;18.99;62.76
29385;BME280;16367;48.736;9.218;2022-07-06T04:34:33;-23792.16;;;19.82;60.81
29385;BME280;16367;48.736;9.218;2022-07-06T04:36:35;-23803.94;;;20.20;59.53
29385;BME280;16367;48.736;9.218;2022-07-06T04:38:40;-23794.53;;;19.89;59.69
29385;BME280;16367;48.736;9.218;2022-07-06T04:40:42;-23806.28;;;20.27;59.15
29385;BME280;16367;48.736;9.218;2022-07-06T04:42:47;-23808.03;;;20.33;58.56
29385;BME280;16367;48.736;9.218;2022-07-06T04:44:50;-23812.09;;;20.46;58.85
29385;BME280;16367;48.736;9.218;2022-07-06T04:46:54;-23819.78;;;20.70;57.61
29385;BME280;16367;48.736;9.218;2022-07-06T04:48:56;-23811.47;;;20.44;58.30
29385;BME280;16367;48.736;9.218;2022-07-06T04:50:59;-23789.66;;;19.74;59.72
29385;BME280;16367;48.736;9.218;2022-07-06T04:53:02;-23807.06;;;20.30;59.32
29385;BME280;16367;48.736;9.218;2022-07-06T04:55:06;-23784.16;;;19.56;60.70
29385;BME280;16367;48.736;9.218;2022-07-06T04:57:10;-23793.72;;;19.87;61.20
29385;BME280;16367;48.736;9.218;2022-07-06T04:59:13;-23812.09;;;20.46;59.04
29385;BME280;16367;48.736;9.218;2022-07-06T05:01:16;-23794.19;;;19.88;59.72
29385;BME280;16367;48.736;9.218;2022-07-06T05:03:19;-23786.66;;;19.64;60.77
29385;BME280;16367;48.736;9.218;2022-07-06T05:05:22;-23802.53;;;20.15;59.86
29385;BME280;16367;48.736;9.218;2022-07-06T05:07:25;-23816.81;;;20.61;59.49
29385;BME280;16367;48.736;9.218;2022-07-06T05:09:30;-23801.28;;;20.11;59.75
29385;BME280;16367;48.736;9.218;2022-07-06T05:11:34;-23831.22;;;21.07;57.96
29385;BME280;16367;48.736;9.218;2022-07-06T05:13:39;-23795.31;;;19.92;62.13
29385;BME280;16367;48.736;9.218;2022-07-06T05:15:41;-23795.47;;;19.92;60.90
29385;BME280;16367;48.736;9.218;2022-07-06T05:17:44;-23823.38;;;20.82;58.25
29385;BME280;16367;48.736;9.218;2022-07-06T05:19:47;-23852.84;;;21.77;55.29
29385;BME280;16367;48.736;9.218;2022-07-06T05:21:50;-23816.19;;;20.59;57.77
29385;BME280;16367;48.736;9.218;2022-07-06T05:23:53;-23805.97;;;20.26;59.73
29385;BME280;16367;48.736;9.218;2022-07-06T05:25:55;-23801.09;;;20.11;60.85
29385;BME280;16367;48.736;9.218;2022-07-06T05:27:59;-23831.22;;;21.07;57.92
29385;BME280;16367;48.736;9.218;2022-07-06T05:30:03;-23823.69;;;20.83;57.49
29385;BME280;16367;48.736;9.218;2022-07-06T05:32:07;-23807.38;;;20.31;59.07
29385;BME280;16367;48.736;9.218;2022-07-06T05:34:09;-23819.00;;;20.68;59.29
29385;BME280;16367;48.736;9.218;2022-07-06T05:36:12;-23835.63;;;21.21;57.74
29385;BME280;16367;48.736;9.218;2022-07-06T05:38:15;-23800.47;;;20.08;60.45
29385;BME280;16367;48.736;9.218;2022-07-06T05:40:18;-23805.19;;;20.24;59.82
29385;BME280;16367;48.736;9.218;2022-07-06T05:42:21;-23823.84;;;20.84;59.20
29385;BME280;16367;48.736;9.218;2022-07-06T05:44:25;-23834.84;;;21.19;59.51
29385;BME280;16367;48.736;9.218;2022-07-06T05:46:28;-23823.06;;;20.81;59.94
29385;BME280;16367;48.736;9.218;2022-07-06T05:48:31;-23832.47;;;21.11;58.81
29385;BME280;16367;48.736;9.218;2022-07-06T05:50:51;-23825.75;;;20.90;58.39
29385;BME280;16367;48.736;9.218;2022-07-06T05:52:58;-23827.47;;;20.95;58.59
29385;BME280;16367;48.736;9.218;2022-07-06T05:55:13;-23796.56;;;19.96;60.93
29385;BME280;16367;48.736;9.218;2022-07-06T05:57:16;-23831.06;;;21.07;58.22
29385;BME280;16367;48.736;9.218;2022-07-06T05:59:19;-23833.44;;;21.14;57.92
29385;BME280;16367;48.736;9.218;2022-07-06T06:01:23;-23816.97;;;20.61;59.06
29385;BME280;16367;48.736;9.218;2022-07-06T06:03:26;-23828.72;;;20.99;58.78
29385;BME280;16367;48.736;9.218;2022-07-06T06:05:29;-23827.47;;;20.95;58.62
29385;BME280;16367;48.736;9.218;2022-07-06T06:07:33;-23801.28;;;20.11;61.20
29385;BME280;16367;48.736;9.218;2022-07-06T06:09:36;-23817.44;;;20.63;59.83
29385;BME280;16367;48.736;9.218;2022-07-06T06:11:38;-23824.31;;;20.85;59.61
29385;BME280;16367;48.736;9.218;2022-07-06T06:13:41;-23835.94;;;21.22;59.29
29385;BME280;16367;48.736;9.218;2022-07-06T06:15:44;-23801.28;;;20.11;61.08
29385;BME280;16367;48.736;9.218;2022-07-06T06:17:49;-23820.09;;;20.71;60.86
29385;BME280;16367;48.736;9.218;2022-07-06T06:19:52;-23820.56;;;20.73;58.84
29385;BME280;16367;48.736;9.218;2022-07-06T06:21:54;-23858.19;;;21.94;55.13
29385;BME280;16367;48.736;9.218;2022-07-06T06:23:57;-23849.09;;;21.65;55.66
29385;BME280;16367;48.736;9.218;2022-07-06T06:26:00;-23876.81;;;22.54;53.95
29385;BME280;16367;48.736;9.218;2022-07-06T06:28:04;-23853.00;;;21.77;54.97
29385;BME280;16367;48.736;9.218;2022-07-06T06:30:08;-23854.91;;;21.83;55.08
29385;BME280;16367;48.736;9.218;2022-07-06T06:32:11;-23823.06;;;20.81;57.79
29385;BME280;16367;48.736;9.218;2022-07-06T06:34:16;-23832.00;;;21.10;57.45
29385;BME280;16367;48.736;9.218;2022-07-06T06:36:18;-23843.44;;;21.46;56.05
29385;BME280;16367;48.736;9.218;2022-07-06T06:38:22;-23843.13;;;21.45;57.29
29385;BME280;16367;48.736;9.218;2022-07-06T06:40:29;-23854.91;;;21.83;56.45
29385;BME280;16367;48.736;9.218;2022-07-06T06:42:32;-23873.53;;;22.43;56.20
29385;BME280;16367;48.736;9.218;2022-07-06T06:44:34;-23877.91;;;22.57;54.89
29385;BME280;16367;48.736;9.218;2022-07-06T06:46:37;-23873.53;;;22.43;53.93
29385;BME280;16367;48.736;9.218;2022-07-06T06:48:41;-23883.84;;;22.76;53.09
29385;BME280;16367;48.736;9.218;2022-07-06T06:50:45;-23883.38;;;22.75;52.60
29385;BME280;16367;48.736;9.218;2022-07-06T06:52:48;-23890.59;;;22.98;52.68
29385;BME280;16367;48.736;9.218;2022-07-06T06:54:51;-23874.94;;;22.48;54.81
29385;BME280;16367;48.736;9.218;2022-07-06T06:56:54;-23882.75;;;22.73;55.87
29385;BME280;16367;48.736;9.218;2022-07-06T06:58:57;-23862.25;;;22.07;55.64
29385;BME280;16367;48.736;9.218;2022-07-06T07:01:18;-23860.38;;;22.01;55.57
29385;BME280;16367;48.736;9.218;2022-07-06T07:03:21;-23839.69;;;21.34;58.19
29385;BME280;16367;48.736;9.218;2022-07-06T07:05:24;-23860.06;;;22.00;56.46
29385;BME280;16367;48.736;9.218;2022-07-06T07:07:28;-23845.34;;;21.52;57.47
29385;BME280;16367;48.736;9.218;2022-07-06T07:09:31;-23844.72;;;21.50;57.30
29385;BME280;16367;48.736;9.218;2022-07-06T07:11:33;-23877.28;;;22.55;54.05
29385;BME280;16367;48.736;9.218;2022-07-06T07:13:36;-23859.91;;;21.99;56.56
29385;BME280;16367;48.736;9.218;2022-07-06T07:15:39;-23851.59;;;21.73;54.96
29385;BME280;16367;48.736;9.218;2022-07-06T07:17:42;-23853.47;;;21.79;55.44
29385;BME280;16367;48.736;9.218;2022-07-06T07:19:45;-23876.34;;;22.52;53.85
29385;BME280;16367;48.736;9.218;2022-07-06T07:21:48;-23845.97;;;21.54;55.94
29385;BME280;16367;48.736;9.218;2022-07-06T07:23:52;-23896.06;;;23.16;52.92
29385;BME280;16367;48.736;9.218;2022-07-06T07:25:55;-23865.38;;;22.17;54.58
29385;BME280;16367;48.736;9.218;2022-07-06T07:27:57;-23895.75;;;23.15;53.07
29385;BME280;16367;48.736;9.218;2022-07-06T07:30:00;-23863.19;;;22.10;54.21
29385;BME280;16367;48.736;9.218;2022-07-06T07:32:03;-23898.56;;;23.24;52.70
29385;BME280;16367;48.736;9.218;2022-07-06T07:34:06;-23876.81;;;22.54;52.93
29385;BME280;16367;48.736;9.218;2022-07-06T07:36:09;-23870.09;;;22.32;53.55
29385;BME280;16367;48.736;9.218;2022-07-06T07:38:12;-23879.94;;;22.64;53.31
29385;BME280;16367;48.736;9.218;2022-07-06T07:40:17;-23913.41;;;23.71;51.16
29385;BME280;16367;48.736;9.218;2022-07-06T07:42:20;-23930.44;;;24.26;50.25
29385;BME280;16367;48.736;9.218;2022-07-06T07:44:22;-23921.84;;;23.99;50.92
29385;BME280;16367;48.736;9.218;2022-07-06T07:46:26;-23900.75;;;23.31;51.53
29385;BME280;16367;48.736;9.218;2022-07-06T07:48:29;-23912.47;;;23.68;49.80
29385;BME280;16367;48.736;9.218;2022-07-06T07:50:31;-23913.25;;;23.71;51.36
29385;BME280;16367;48.736;9.218;2022-07-06T07:52:36;-23883.84;;;22.76;51.92
29385;BME280;16367;48.736;9.218;2022-07-06T07:54:39;-23866.63;;;22.21;54.38
29385;BME280;16367;48.736;9.218;2022-07-06T07:56:50;-23922.94;;;24.02;49.84
29385;BME280;16367;48.736;9.218;2022-07-06T07:58:53;-23903.56;;;23.40;50.98
29385;BME280;16367;48.736;9.218;2022-07-06T08:00:56;-23902.94;;;23.38;50.53
29385;BME280;16367;48.736;9.218;2022-07-06T08:02:59;-23928.41;;;24.20;48.14
29385;BME280;16367;48.736;9.218;2022-07-06T08:05:02;-23904.19;;;23.42;49.74
29385;BME280;16367;48.736;9.218;2022-07-06T08:07:05;-23893.25;;;23.07;50.64
29385;BME280;16367;48.736;9.218;2022-07-06T08:09:08;-23907.00;;;23.51;49.75
29385;BME280;16367;48.736;9.218;2022-07-06T08:11:11;-23924.84;;;24.08;49.87
29385;BME280;16367;48.736;9.218;2022-07-06T08:13:21;-23918.41;;;23.88;49.45
29385;BME280;16367;48.736;9.218;2022-07-06T08:15:24;-23908.25;;;23.55;49.76
29385;BME280;16367;48.736;9.218;2022-07-06T08:17:27;-23904.19;;;23.42;48.95
29385;BME280;16367;48.736;9.218;2022-07-06T08:19:30;-23942.63;;;24.66;47.58
29385;BME280;16367;48.736;9.218;2022-07-06T08:21:33;-23937.31;;;24.49;47.35
29385;BME280;16367;48.736;9.218;2022-07-06T08:23:35;-23945.59;;;24.75;47.55
29385;BME280;16367;48.736;9.218;2022-07-06T08:25:38;-23922.94;;;24.02;49.99
29385;BME280;16367;48.736;9.218;2022-07-06T08:27:41;-23937.78;;;24.50;48.56
29385;BME280;16367;48.736;9.218;2022-07-06T08:29:45;-23977.13;;;25.77;46.35
29385;BME280;16367;48.736;9.218;2022-07-06T08:31:48;-23901.06;;;23.32;48.17
29385;BME280;16367;48.736;9.218;2022-07-06T08:33:57;-23922.63;;;24.01;48.49
29385;BME280;16367;48.736;9.218;2022-07-06T08:36:00;-23940.44;;;24.59;48.38
29385;BME280;16367;48.736;9.218;2022-07-06T08:38:03;-23931.06;;;24.28;48.07
29385;BME280;16367;48.736;9.218;2022-07-06T08:40:08;-23921.53;;;23.98;50.12
29385;BME280;16367;48.736;9.218;2022-07-06T08:42:12;-23947.63;;;24.82;47.68
29385;BME280;16367;48.736;9.218;2022-07-06T08:44:17;-23899.66;;;23.27;49.39
29385;BME280;16367;48.736;9.218;2022-07-06T08:46:22;-23927.78;;;24.18;49.38
29385;BME280;16367;48.736;9.218;2022-07-06T08:48:26;-23892.63;;;23.05;50.80
29385;BME280;16367;48.736;9.218;2022-07-06T08:50:30;-23908.72;;;23.56;51.87
29385;BME280;16367;48.736;9.218;2022-07-06T08:52:33;-23940.75;;;24.60;49.68
29385;BME280;16367;48.736;9.218;2022-07-06T08:54:38;-23905.75;;;23.47;50.94
29385;BME280;16367;48.736;9.218;2022-07-06T08:56:42;-23924.84;;;24.08;50.25
29385;BME280;16367;48.736;9.218;2022-07-06T08:58:49;-23970.88;;;25.57;47.37
29385;BME280;16367;48.736;9.218;2022-07-06T09:00:52;-23979.78;;;25.85;46.73
29385;BME280;16367;48.736;9.218;2022-07-06T09:02:57;-23995.03;;;26.35;45.66
29385;BME280;16367;48.736;9.218;2022-07-06T09:05:02;-23978.69;;;25.82;45.76
29385;BME280;16367;48.736;9.218;2022-07-06T09:07:05;-23963.84;;;25.34;47.61
29385;BME280;16367;48.736;9.218;2022-07-06T09:09:09;-23955.75;;;25.08;48.08
29385;BME280;16367;48.736;9.218;2022-07-06T09:11:13;-23963.84;;;25.34;47.89
29385;BME280;16367;48.736;9.218;2022-07-06T09:13:15;-23953.25;;;25.00;47.36
29385;BME280;16367;48.736;9.218;2022-07-06T09:15:18;-23958.72;;;25.17;47.47
29385;BME280;16367;48.736;9.218;2022-07-06T09:17:21;-23994.91;;;26.34;45.74
29385;BME280;16367;48.736;9.218;2022-07-06T09:19:30;-23971.03;;;25.57;47.45
29385;BME280;16367;48.736;9.218;2022-07-06T09:21:33;-24025.25;;;27.32;45.60
29385;BME280;16367;48.736;9.218;2022-07-06T09:23:38;-23968.69;;;25.50;47.12
29385;BME280;16367;48.736;9.218;2022-07-06T09:25:41;-24010.00;;;26.83;44.08
29385;BME280;16367;48.736;9.218;2022-07-06T09:27:46;-24005.00;;;26.67;44.85
29385;BME280;16367;48.736;9.218;2022-07-06T09:29:51;-24040.66;;;27.82;42.82
29385;BME280;16367;48.736;9.218;2022-07-06T09:31:57;-24017.16;;;27.06;45.01
29385;BME280;16367;48.736;9.218;2022-07-06T09:34:02;-23930.75;;;24.27;48.16
29385;BME280;16367;48.736;9.218;2022-07-06T09:36:08;-23952.47;;;24.97;47.21
29385;BME280;16367;48.736;9.218;2022-07-06T09:38:12;-23945.13;;;24.74;47.75
29385;BME280;16367;48.736;9.218;2022-07-06T09:40:16;-23948.25;;;24.84;48.12
29385;BME280;16367;48.736;9.218;2022-07-06T09:42:24;-23910.44;;;23.62;50.61
29385;BME280;16367;48.736;9.218;2022-07-06T09:44:30;-23923.25;;;24.03;50.70
29385;BME280;16367;48.736;9.218;2022-07-06T09:46:37;-23950.28;;;24.90;48.12
29385;BME280;16367;48.736;9.218;2022-07-06T09:48:40;-24004.06;;;26.64;45.07
29385;BME280;16367;48.736;9.218;2022-07-06T09:50:45;-23991.00;;;26.22;45.29
29385;BME280;16367;48.736;9.218;2022-07-06T09:52:54;-23940.28;;;24.58;48.70
29385;BME280;16367;48.736;9.218;2022-07-06T09:54:59;-23964.47;;;25.36;46.05
29385;BME280;16367;48.736;9.218;2022-07-06T09:57:03;-23937.00;;;24.48;48.13
29385;BME280;16367;48.736;9.218;2022-07-06T09:59:10;-23926.38;;;24.13;49.80
29385;BME280;16367;48.736;9.218;2022-07-06T10:01:25;-23990.06;;;26.19;45.21
29385;BME280;16367;48.736;9.218;2022-07-06T10:03:29;-23972.28;;;25.61;46.37
29385;BME280;16367;48.736;9.218;2022-07-06T10:05:33;-23993.78;;;26.31;44.79
29385;BME280;16367;48.736;9.218;2022-07-06T10:07:37;-24027.13;;;27.39;43.39
29385;BME280;16367;48.736;9.218;2022-07-06T10:09:42;-24078.75;;;29.06;40.78
29385;BME280;16367;48.736;9.218;2022-07-06T10:11:48;-24040.34;;;27.81;42.86
29385;BME280;16367;48.736;9.218;2022-07-06T10:13:54;-24042.69;;;27.89;43.37
29385;BME280;16367;48.736;9.218;2022-07-06T10:15:58;-24030.56;;;27.50;43.04
29385;BME280;16367;48.736;9.218;2022-07-06T10:18:03;-24015.91;;;27.02;43.54
29385;BME280;16367;48.736;9.218;2022-07-06T10:20:07;-23945.75;;;24.76;47.76
29385;BME280;16367;48.736;9.218;2022-07-06T10:22:10;-23955.44;;;25.07;46.55
29385;BME280;16367;48.736;9.218;2022-07-06T10:24:14;-23938.41;;;24.52;47.76
29385;BME280;16367;48.736;9.218;2022-07-06T10:26:18;-23920.59;;;23.95;47.88
29385;BME280;16367;48.736;9.218;2022-07-06T10:28:21;-23913.25;;;23.71;49.07
29385;BME280;16367;48.736;9.218;2022-07-06T10:30:25;-23938.56;;;24.53;47.91
29385;BME280;16367;48.736;9.218;2022-07-06T10:32:28;-23925.47;;;24.10;48.92
29385;BME280;16367;48.736;9.218;2022-07-06T10:34:31;-23932.16;;;24.32;50.14
29385;BME280;16367;48.736;9.218;2022-07-06T10:36:40;-23896.38;;;23.17;51.16
29385;BME280;16367;48.736;9.218;2022-07-06T10:38:48;-23925.91;;;24.12;48.82
29385;BME280;16367;48.736;9.218;2022-07-06T10:41:02;-23912.63;;;23.69;51.01
29385;BME280;16367;48.736;9.218;2022-07-06T10:43:08;-23947.63;;;24.82;48.68
29385;BME280;16367;48.736;9.218;2022-07-06T10:45:12;-23920.44;;;23.94;49.43
29385;BME280;16367;48.736;9.218;2022-07-06T10:47:16;-23905.13;;;23.45;50.90